Time,TemperatureF,DewpointF,PressureIn,WindDirection,WindDirectionDegrees,WindSpeedMPH,WindSpeedGustMPH,Humidity,HourlyPrecipIn,Conditions,Clouds,dailyrainin,SolarRadiationWatts/m^2,SoftwareType,DateUTC
2013-02-22 00:01:00,23.0,18.0,-100.00,WSW,258,15.0,19.0,80,0.00,,,0.00,0.000000,,2013-02-22 07:01:00,
2013-02-22 00:32:00,23.0,18.0,-100.00,WSW,258,15.0,19.0,80,0.00,,,0.00,0.000000,,2013-02-22 07:32:00,
2013-02-22 00:42:00,23.0,18.0,-100.00,WSW,258,15.0,19.0,80,0.00,,,0.00,0.000000,,2013-02-22 07:42:00,
2013-02-22 00:52:00,23.0,18.0,-100.00,WSW,258,15.0,19.0,80,0.00,,,0.00,0.000000,,2013-02-22 07:52:00,
2013-02-22 01:01:00,24.0,19.0,-100.00,WSW,257,16.0,19.0,82,0.00,,,0.00,0.000000,,2013-02-22 08:01:00,
2013-02-22 01:32:00,24.0,19.0,-100.00,WSW,257,16.0,19.0,82,0.00,,,0.00,0.000000,,2013-02-22 08:32:00,
2013-02-22 01:42:00,24.0,19.0,-100.00,WSW,257,16.0,19.0,82,0.00,,,0.00,0.000000,,2013-02-22 08:42:00,
2013-02-22 01:52:00,24.0,19.0,-100.00,WSW,257,16.0,19.0,82,0.00,,,0.00,0.000000,,2013-02-22 08:52:00,
2013-02-22 02:01:00,24.0,18.0,-100.00,West,260,14.0,18.0,77,0.00,,,0.00,0.000000,,2013-02-22 09:01:00,
2013-02-22 02:22:00,24.0,18.0,-100.00,West,260,14.0,18.0,77,0.00,,,0.00,0.000000,,2013-02-22 09:22:00,
2013-02-22 02:32:00,24.0,18.0,-100.00,West,260,14.0,18.0,77,0.00,,,0.00,0.000000,,2013-02-22 09:32:00,
2013-02-22 02:42:00,24.0,18.0,-100.00,West,260,14.0,18.0,77,0.00,,,0.00,0.000000,,2013-02-22 09:42:00,
2013-02-22 02:52:00,24.0,18.0,-100.00,West,260,14.0,18.0,77,0.00,,,0.00,0.000000,,2013-02-22 09:52:00,
2013-02-22 03:01:00,24.0,17.0,-100.00,West,263,16.0,24.0,75,0.00,,,0.00,0.000000,,2013-02-22 10:01:00,
2013-02-22 03:32:00,24.0,17.0,-100.00,West,263,16.0,24.0,75,0.00,,,0.00,0.000000,,2013-02-22 10:32:00,
2013-02-22 03:42:00,24.0,17.0,-100.00,West,263,16.0,24.0,75,0.00,,,0.00,0.000000,,2013-02-22 10:42:00,
2013-02-22 03:52:00,24.0,17.0,-100.00,West,263,16.0,24.0,75,0.00,,,0.00,0.000000,,2013-02-22 10:52:00,
2013-02-22 04:01:00,24.0,15.0,-100.00,West,269,12.0,21.0,69,0.00,,,-99.99,0.000000,,2013-02-22 11:01:00,
2013-02-22 04:22:00,24.0,15.0,-100.00,West,269,12.0,21.0,69,0.00,,,-99.99,0.000000,,2013-02-22 11:22:00,
2013-02-22 04:32:00,24.0,15.0,-100.00,West,269,12.0,21.0,69,0.00,,,-99.99,0.000000,,2013-02-22 11:32:00,
2013-02-22 04:42:00,24.0,15.0,-100.00,West,269,12.0,21.0,69,0.00,,,-99.99,0.000000,,2013-02-22 11:42:00,
2013-02-22 04:52:00,24.0,15.0,-100.00,West,269,12.0,21.0,69,0.00,,,-99.99,0.000000,,2013-02-22 11:52:00,
2013-02-22 05:01:00,24.0,14.0,-100.00,West,267,14.0,17.0,65,0.00,,,0.00,0.000000,,2013-02-22 12:01:00,
2013-02-22 05:32:00,24.0,14.0,-100.00,West,267,14.0,17.0,65,0.00,,,0.00,0.000000,,2013-02-22 12:32:00,
2013-02-22 05:42:00,24.0,14.0,-100.00,West,267,14.0,17.0,65,0.00,,,0.00,0.000000,,2013-02-22 12:42:00,
2013-02-22 05:52:00,24.0,14.0,-100.00,West,267,14.0,17.0,65,0.00,,,0.00,0.000000,,2013-02-22 12:52:00,
2013-02-22 06:01:00,25.0,13.0,-100.00,West,273,15.0,21.0,60,0.00,,,0.00,0.000000,,2013-02-22 13:01:00,
2013-02-22 06:32:00,25.0,13.0,-100.00,West,273,15.0,21.0,60,0.00,,,0.00,0.000000,,2013-02-22 13:32:00,
2013-02-22 06:42:00,25.0,13.0,-100.00,West,273,15.0,21.0,60,0.00,,,0.00,0.000000,,2013-02-22 13:42:00,
2013-02-22 06:52:00,25.0,13.0,-100.00,West,273,15.0,21.0,60,0.00,,,0.00,0.000000,,2013-02-22 13:52:00,
2013-02-22 07:01:00,24.0,13.0,-100.00,West,263,16.0,22.0,63,0.00,,,0.00,1.000000,,2013-02-22 14:01:00,
2013-02-22 07:32:00,24.0,13.0,-100.00,West,263,16.0,22.0,63,0.00,,,0.00,1.000000,,2013-02-22 14:32:00,
2013-02-22 07:42:00,24.0,13.0,-100.00,West,263,16.0,22.0,63,0.00,,,0.00,1.000000,,2013-02-22 14:42:00,
2013-02-22 07:53:00,24.0,13.0,-100.00,West,263,16.0,22.0,63,0.00,,,0.00,1.000000,,2013-02-22 14:53:00,
2013-02-22 08:01:00,24.0,14.0,-100.00,WSW,251,16.0,20.0,66,0.00,,,0.00,46.000000,,2013-02-22 15:01:00,
2013-02-22 08:32:00,24.0,14.0,-100.00,WSW,251,16.0,20.0,66,0.00,,,0.00,46.000000,,2013-02-22 15:32:00,
2013-02-22 08:42:00,24.0,14.0,-100.00,WSW,251,16.0,20.0,66,0.00,,,0.00,46.000000,,2013-02-22 15:42:00,
2013-02-22 08:52:00,24.0,14.0,-100.00,WSW,251,16.0,20.0,66,0.00,,,0.00,46.000000,,2013-02-22 15:52:00,
2013-02-22 09:01:00,27.0,14.0,-100.00,West,264,16.0,25.0,57,0.00,,,0.00,263.000000,,2013-02-22 16:01:00,
2013-02-22 09:32:00,27.0,14.0,-100.00,West,264,16.0,25.0,57,0.00,,,0.00,263.000000,,2013-02-22 16:32:00,
2013-02-22 09:42:00,27.0,14.0,-100.00,West,264,16.0,25.0,57,0.00,,,0.00,263.000000,,2013-02-22 16:42:00,
2013-02-22 09:52:00,27.0,14.0,-100.00,West,264,16.0,25.0,57,0.00,,,0.00,263.000000,,2013-02-22 16:52:00,
2013-02-22 10:01:00,29.0,15.0,-100.00,West,272,15.0,24.0,55,0.00,,,0.00,415.000000,,2013-02-22 17:01:00,
2013-02-22 10:32:00,29.0,15.0,-100.00,West,272,15.0,24.0,55,0.00,,,0.00,415.000000,,2013-02-22 17:32:00,
2013-02-22 10:42:00,29.0,15.0,-100.00,West,272,15.0,24.0,55,0.00,,,0.00,415.000000,,2013-02-22 17:42:00,
2013-02-22 10:52:00,29.0,15.0,-100.00,West,272,15.0,24.0,55,0.00,,,0.00,415.000000,,2013-02-22 17:52:00,
2013-02-22 11:01:00,31.0,17.0,-100.00,WSW,255,14.0,22.0,56,0.00,,,0.00,454.000000,,2013-02-22 18:01:00,
2013-02-22 11:23:00,31.0,17.0,-100.00,WSW,255,14.0,22.0,56,0.00,,,0.00,454.000000,,2013-02-22 18:23:00,
2013-02-22 11:32:00,31.0,17.0,-100.00,WSW,255,14.0,22.0,56,0.00,,,0.00,454.000000,,2013-02-22 18:32:00,
2013-02-22 11:42:00,31.0,17.0,-100.00,WSW,255,14.0,22.0,56,0.00,,,0.00,454.000000,,2013-02-22 18:42:00,
2013-02-22 11:52:00,31.0,17.0,-100.00,WSW,255,14.0,22.0,56,0.00,,,0.00,454.000000,,2013-02-22 18:52:00,
2013-02-22 12:01:00,33.0,17.0,-100.00,WSW,255,12.0,18.0,52,0.00,,,0.00,615.000000,,2013-02-22 19:01:00,
2013-02-22 12:21:00,33.0,17.0,-100.00,WSW,255,12.0,18.0,52,0.00,,,0.00,615.000000,,2013-02-22 19:21:00,
2013-02-22 12:31:00,33.0,17.0,-100.00,WSW,255,12.0,18.0,52,0.00,,,0.00,615.000000,,2013-02-22 19:31:00,
2013-02-22 12:42:00,33.0,17.0,-100.00,WSW,255,12.0,18.0,52,0.00,,,0.00,615.000000,,2013-02-22 19:42:00,
2013-02-22 12:52:00,33.0,17.0,-100.00,WSW,255,12.0,18.0,52,0.00,,,0.00,615.000000,,2013-02-22 19:52:00,
2013-02-22 13:01:00,35.0,17.0,-100.00,West,271,11.0,17.0,48,0.00,,,0.00,633.000000,,2013-02-22 20:01:00,
2013-02-22 13:32:00,35.0,17.0,-100.00,West,271,11.0,17.0,48,0.00,,,0.00,633.000000,,2013-02-22 20:32:00,
2013-02-22 13:42:00,35.0,17.0,-100.00,West,271,11.0,17.0,48,0.00,,,0.00,633.000000,,2013-02-22 20:42:00,
2013-02-22 13:52:00,35.0,17.0,-100.00,West,271,11.0,17.0,48,0.00,,,0.00,633.000000,,2013-02-22 20:52:00,
2013-02-22 14:01:00,35.0,17.0,-100.00,West,266,16.0,23.0,48,0.00,,,0.00,599.000000,,2013-02-22 21:01:00,
2013-02-22 14:32:00,35.0,17.0,-100.00,West,266,16.0,23.0,48,0.00,,,0.00,599.000000,,2013-02-22 21:32:00,
2013-02-22 14:42:00,35.0,17.0,-100.00,West,266,16.0,23.0,48,0.00,,,0.00,599.000000,,2013-02-22 21:42:00,
2013-02-22 14:52:00,35.0,17.0,-100.00,West,266,16.0,23.0,48,0.00,,,0.00,599.000000,,2013-02-22 21:52:00,
2013-02-22 15:01:00,36.0,17.0,-100.00,WSW,255,16.0,24.0,45,0.00,,,0.00,496.000000,,2013-02-22 22:01:00,
2013-02-22 15:32:00,36.0,17.0,-100.00,WSW,255,16.0,24.0,45,0.00,,,0.00,496.000000,,2013-02-22 22:32:00,
2013-02-22 15:42:00,36.0,17.0,-100.00,WSW,255,16.0,24.0,45,0.00,,,0.00,496.000000,,2013-02-22 22:42:00,
2013-02-22 15:52:00,36.0,17.0,-100.00,WSW,255,16.0,24.0,45,0.00,,,0.00,496.000000,,2013-02-22 22:52:00,
2013-02-22 16:01:00,36.0,14.0,-100.00,WSW,255,14.0,23.0,40,0.00,,,0.00,354.000000,,2013-02-22 23:01:00,
2013-02-22 16:32:00,36.0,14.0,-100.00,WSW,255,14.0,23.0,40,0.00,,,0.00,354.000000,,2013-02-22 23:32:00,
2013-02-22 16:42:00,36.0,14.0,-100.00,WSW,255,14.0,23.0,40,0.00,,,0.00,354.000000,,2013-02-22 23:42:00,
2013-02-22 16:52:00,36.0,14.0,-100.00,WSW,255,14.0,23.0,40,0.00,,,0.00,354.000000,,2013-02-22 23:52:00,
2013-02-22 17:01:00,33.0,10.0,-100.00,WSW,243,12.0,20.0,37,0.00,,,0.00,154.000000,,2013-02-23 00:01:00,
2013-02-22 17:21:00,33.0,10.0,-100.00,WSW,243,12.0,20.0,37,0.00,,,0.00,154.000000,,2013-02-23 00:21:00,
2013-02-22 17:32:00,33.0,10.0,-100.00,WSW,243,12.0,20.0,37,0.00,,,0.00,154.000000,,2013-02-23 00:32:00,
2013-02-22 17:42:00,33.0,10.0,-100.00,WSW,243,12.0,20.0,37,0.00,,,0.00,154.000000,,2013-02-23 00:42:00,
2013-02-22 17:52:00,33.0,10.0,-100.00,WSW,243,12.0,20.0,37,0.00,,,0.00,154.000000,,2013-02-23 00:52:00,
2013-02-22 18:01:00,31.0,8.0,-100.00,SW,214,10.0,12.0,38,0.00,,,0.00,15.000000,,2013-02-23 01:01:00,
2013-02-22 18:32:00,31.0,8.0,-100.00,SW,214,10.0,12.0,38,0.00,,,0.00,15.000000,,2013-02-23 01:32:00,
2013-02-22 18:42:00,31.0,8.0,-100.00,SW,214,10.0,12.0,38,0.00,,,0.00,15.000000,,2013-02-23 01:42:00,
2013-02-22 18:52:00,31.0,8.0,-100.00,SW,214,10.0,12.0,38,0.00,,,0.00,15.000000,,2013-02-23 01:52:00,
2013-02-22 19:01:00,30.0,7.0,-100.00,SSW,200,12.0,14.0,37,0.00,,,0.00,0.000000,,2013-02-23 02:01:00,
2013-02-22 19:32:00,30.0,7.0,-100.00,SSW,200,12.0,14.0,37,0.00,,,0.00,0.000000,,2013-02-23 02:32:00,
2013-02-22 19:42:00,30.0,7.0,-100.00,SSW,200,12.0,14.0,37,0.00,,,0.00,0.000000,,2013-02-23 02:42:00,
2013-02-22 19:52:00,30.0,7.0,-100.00,SSW,200,12.0,14.0,37,0.00,,,0.00,0.000000,,2013-02-23 02:52:00,
2013-02-22 20:01:00,29.0,5.0,-100.00,SSW,202,17.0,19.0,36,0.00,,,0.00,0.000000,,2013-02-23 03:01:00,
2013-02-22 20:32:00,29.0,5.0,-100.00,SSW,202,17.0,19.0,36,0.00,,,0.00,0.000000,,2013-02-23 03:32:00,
2013-02-22 20:42:00,29.0,5.0,-100.00,SSW,202,17.0,19.0,36,0.00,,,0.00,0.000000,,2013-02-23 03:42:00,
2013-02-22 20:52:00,29.0,5.0,-100.00,SSW,202,17.0,19.0,36,0.00,,,0.00,0.000000,,2013-02-23 03:52:00,
2013-02-22 21:01:00,28.0,9.0,-100.00,SSW,200,15.0,21.0,45,0.00,,,0.00,0.000000,,2013-02-23 04:01:00,
2013-02-22 21:32:00,28.0,9.0,-100.00,SSW,200,15.0,21.0,45,0.00,,,0.00,0.000000,,2013-02-23 04:32:00,
2013-02-22 21:42:00,28.0,9.0,-100.00,SSW,200,15.0,21.0,45,0.00,,,0.00,0.000000,,2013-02-23 04:42:00,
2013-02-22 21:52:00,28.0,9.0,-100.00,SSW,200,15.0,21.0,45,0.00,,,0.00,0.000000,,2013-02-23 04:52:00,
2013-02-22 22:01:00,29.0,9.0,-100.00,SSW,202,18.0,21.0,42,0.00,,,0.00,0.000000,,2013-02-23 05:01:00,
2013-02-22 22:23:00,29.0,9.0,-100.00,SSW,202,18.0,21.0,42,0.00,,,0.00,0.000000,,2013-02-23 05:23:00,
2013-02-22 22:33:00,29.0,9.0,-100.00,SSW,202,18.0,21.0,42,0.00,,,0.00,0.000000,,2013-02-23 05:33:00,
2013-02-22 22:42:00,29.0,9.0,-100.00,SSW,202,18.0,21.0,42,0.00,,,0.00,0.000000,,2013-02-23 05:42:00,
2013-02-22 22:52:00,29.0,9.0,-100.00,SSW,202,18.0,21.0,42,0.00,,,0.00,0.000000,,2013-02-23 05:52:00,
2013-02-22 23:01:00,29.0,7.0,-100.00,SSW,200,18.0,22.0,39,0.00,,,0.00,0.000000,,2013-02-23 06:01:00,
2013-02-22 23:32:00,29.0,7.0,-100.00,SSW,200,18.0,22.0,39,0.00,,,0.00,0.000000,,2013-02-23 06:32:00,
2013-02-22 23:42:00,29.0,7.0,-100.00,SSW,200,18.0,22.0,39,0.00,,,0.00,0.000000,,2013-02-23 06:42:00,
2013-02-22 23:52:00,29.0,7.0,-100.00,SSW,200,18.0,22.0,39,0.00,,,0.00,0.000000,,2013-02-23 06:52:00,